sensor_id;sensor_type;location;lat;lon;timestamp;temperature;humidity
3560;DHT22;1794;48.804;9.156;2022-08-25T00:01:08;17.10;99.90
3560;DHT22;1794;48.804;9.156;2022-08-25T00:03:39;17.10;99.90
3560;DHT22;1794;48.804;9.156;2022-08-25T00:06:07;17.10;99.90
3560;DHT22;1794;48.804;9.156;2022-08-25T00:08:36;17.10;99.90
3560;DHT22;1794;48.804;9.156;2022-08-25T00:11:06;17.10;99.90
3560;DHT22;1794;48.804;9.156;2022-08-25T00:13:34;17.00;99.90
3560;DHT22;1794;48.804;9.156;2022-08-25T00:16:01;17.00;99.90
3560;DHT22;1794;48.804;9.156;2022-08-25T00:18:28;16.90;99.90
3560;DHT22;1794;48.804;9.156;2022-08-25T00:20:56;16.90;99.90
3560;DHT22;1794;48.804;9.156;2022-08-25T00:23:23;16.80;99.90
3560;DHT22;1794;48.804;9.156;2022-08-25T00:25:50;16.80;99.90
3560;DHT22;1794;48.804;9.156;2022-08-25T00:28:21;16.70;99.90
3560;DHT22;1794;48.804;9.156;2022-08-25T00:30:50;16.70;99.90
3560;DHT22;1794;48.804;9.156;2022-08-25T00:33:18;16.70;99.90
3560;DHT22;1794;48.804;9.156;2022-08-25T00:35:46;16.60;99.90
3560;DHT22;1794;48.804;9.156;2022-08-25T00:38:13;16.60;99.90
3560;DHT22;1794;48.804;9.156;2022-08-25T00:40:42;16.70;99.90
3560;DHT22;1794;48.804;9.156;2022-08-25T00:43:10;16.70;99.90
3560;DHT22;1794;48.804;9.156;2022-08-25T00:45:39;16.60;99.90
3560;DHT22;1794;48.804;9.156;2022-08-25T00:48:06;16.50;99.90
3560;DHT22;1794;48.804;9.156;2022-08-25T00:50:34;16.50;99.90
3560;DHT22;1794;48.804;9.156;2022-08-25T00:53:03;16.50;99.90
3560;DHT22;1794;48.804;9.156;2022-08-25T00:55:33;16.50;99.90
3560;DHT22;1794;48.804;9.156;2022-08-25T00:58:05;16.40;99.90
3560;DHT22;1794;48.804;9.156;2022-08-25T01:00:36;16.40;99.90
3560;DHT22;1794;48.804;9.156;2022-08-25T01:03:06;16.40;99.90
3560;DHT22;1794;48.804;9.156;2022-08-25T01:05:34;16.40;99.90
3560;DHT22;1794;48.804;9.156;2022-08-25T01:08:02;16.30;99.90
3560;DHT22;1794;48.804;9.156;2022-08-25T01:10:31;16.30;99.90
3560;DHT22;1794;48.804;9.156;2022-08-25T01:13:02;16.30;99.90
3560;DHT22;1794;48.804;9.156;2022-08-25T01:15:32;16.20;99.90
3560;DHT22;1794;48.804;9.156;2022-08-25T01:18:00;16.20;99.90
3560;DHT22;1794;48.804;9.156;2022-08-25T01:20:31;16.20;99.90
3560;DHT22;1794;48.804;9.156;2022-08-25T01:23:01;16.20;99.90
3560;DHT22;1794;48.804;9.156;2022-08-25T01:25:35;16.20;99.90
3560;DHT22;1794;48.804;9.156;2022-08-25T01:28:08;16.20;99.90
3560;DHT22;1794;48.804;9.156;2022-08-25T01:30:36;16.20;99.90
3560;DHT22;1794;48.804;9.156;2022-08-25T01:33:03;16.10;99.90
3560;DHT22;1794;48.804;9.156;2022-08-25T01:35:32;16.10;99.90
3560;DHT22;1794;48.804;9.156;2022-08-25T01:38:02;16.10;99.90
3560;DHT22;1794;48.804;9.156;2022-08-25T01:40:30;16.00;99.90
3560;DHT22;1794;48.804;9.156;2022-08-25T01:43:05;16.00;99.90
3560;DHT22;1794;48.804;9.156;2022-08-25T01:45:33;16.00;99.90
3560;DHT22;1794;48.804;9.156;2022-08-25T01:48:01;16.00;99.90
3560;DHT22;1794;48.804;9.156;2022-08-25T01:50:28;15.90;99.90
3560;DHT22;1794;48.804;9.156;2022-08-25T01:53:01;15.80;99.90
3560;DHT22;1794;48.804;9.156;2022-08-25T01:55:29;15.80;99.90
3560;DHT22;1794;48.804;9.156;2022-08-25T01:58:16;15.70;99.90
3560;DHT22;1794;48.804;9.156;2022-08-25T02:00:48;15.60;99.90
3560;DHT22;1794;48.804;9.156;2022-08-25T02:03:16;15.60;99.90
3560;DHT22;1794;48.804;9.156;2022-08-25T02:05:44;15.60;99.90
3560;DHT22;1794;48.804;9.156;2022-08-25T02:08:12;15.50;99.90
3560;DHT22;1794;48.804;9.156;2022-08-25T02:10:40;15.50;99.90
3560;DHT22;1794;48.804;9.156;2022-08-25T02:13:09;15.50;99.90
3560;DHT22;1794;48.804;9.156;2022-08-25T02:15:39;15.50;99.90
3560;DHT22;1794;48.804;9.156;2022-08-25T02:18:06;15.50;99.90
3560;DHT22;1794;48.804;9.156;2022-08-25T02:20:33;15.50;99.90
3560;DHT22;1794;48.804;9.156;2022-08-25T02:23:00;15.40;99.90
3560;DHT22;1794;48.804;9.156;2022-08-25T02:25:30;15.40;99.90
3560;DHT22;1794;48.804;9.156;2022-08-25T02:27:58;15.30;99.90
3560;DHT22;1794;48.804;9.156;2022-08-25T02:30:26;15.40;99.90
3560;DHT22;1794;48.804;9.156;2022-08-25T02:32:53;15.50;99.90
3560;DHT22;1794;48.804;9.156;2022-08-25T02:35:21;15.40;99.90
3560;DHT22;1794;48.804;9.156;2022-08-25T02:37:49;15.30;99.90
3560;DHT22;1794;48.804;9.156;2022-08-25T02:40:18;15.30;99.90
3560;DHT22;1794;48.804;9.156;2022-08-25T02:42:49;15.30;99.90
3560;DHT22;1794;48.804;9.156;2022-08-25T02:45:16;15.30;99.90
3560;DHT22;1794;48.804;9.156;2022-08-25T02:47:45;15.30;99.90
3560;DHT22;1794;48.804;9.156;2022-08-25T02:50:14;15.30;99.90
3560;DHT22;1794;48.804;9.156;2022-08-25T02:52:41;15.20;99.90
3560;DHT22;1794;48.804;9.156;2022-08-25T02:55:10;15.20;99.90
3560;DHT22;1794;48.804;9.156;2022-08-25T02:57:39;15.20;99.90
3560;DHT22;1794;48.804;9.156;2022-08-25T03:00:10;15.10;99.90
3560;DHT22;1794;48.804;9.156;2022-08-25T03:02:38;15.20;99.90
3560;DHT22;1794;48.804;9.156;2022-08-25T03:05:06;15.20;99.90
3560;DHT22;1794;48.804;9.156;2022-08-25T03:07:34;15.20;99.90
3560;DHT22;1794;48.804;9.156;2022-08-25T03:10:04;15.20;99.90
3560;DHT22;1794;48.804;9.156;2022-08-25T03:12:32;15.20;99.90
3560;DHT22;1794;48.804;9.156;2022-08-25T03:14:59;15.10;99.90
3560;DHT22;1794;48.804;9.156;2022-08-25T03:17:28;15.10;99.90
3560;DHT22;1794;48.804;9.156;2022-08-25T03:19:56;15.10;99.90
3560;DHT22;1794;48.804;9.156;2022-08-25T03:22:23;15.00;99.90
3560;DHT22;1794;48.804;9.156;2022-08-25T03:24:50;15.00;99.90
3560;DHT22;1794;48.804;9.156;2022-08-25T03:27:37;14.90;99.90
3560;DHT22;1794;48.804;9.156;2022-08-25T03:30:05;14.90;99.90
3560;DHT22;1794;48.804;9.156;2022-08-25T03:32:33;14.90;99.90
3560;DHT22;1794;48.804;9.156;2022-08-25T03:35:00;15.00;99.90
3560;DHT22;1794;48.804;9.156;2022-08-25T03:37:28;15.00;99.90
3560;DHT22;1794;48.804;9.156;2022-08-25T03:39:54;14.90;99.90
3560;DHT22;1794;48.804;9.156;2022-08-25T03:42:21;14.90;99.90
3560;DHT22;1794;48.804;9.156;2022-08-25T03:44:49;14.90;99.90
3560;DHT22;1794;48.804;9.156;2022-08-25T03:47:17;14.90;99.90
3560;DHT22;1794;48.804;9.156;2022-08-25T03:49:46;15.00;99.90
3560;DHT22;1794;48.804;9.156;2022-08-25T03:52:13;14.90;99.90
3560;DHT22;1794;48.804;9.156;2022-08-25T03:54:41;14.90;99.90
3560;DHT22;1794;48.804;9.156;2022-08-25T03:57:08;14.90;99.90
3560;DHT22;1794;48.804;9.156;2022-08-25T03:59:35;14.90;99.90
3560;DHT22;1794;48.804;9.156;2022-08-25T04:02:03;14.80;99.90
3560;DHT22;1794;48.804;9.156;2022-08-25T04:04:30;14.80;99.90
3560;DHT22;1794;48.804;9.156;2022-08-25T04:07:00;14.70;99.90
3560;DHT22;1794;48.804;9.156;2022-08-25T04:09:27;14.70;99.90
3560;DHT22;1794;48.804;9.156;2022-08-25T04:11:55;14.70;99.90
3560;DHT22;1794;48.804;9.156;2022-08-25T04:14:23;14.60;99.90
3560;DHT22;1794;48.804;9.156;2022-08-25T04:16:51;14.60;99.90
3560;DHT22;1794;48.804;9.156;2022-08-25T04:19:19;14.70;99.90
3560;DHT22;1794;48.804;9.156;2022-08-25T04:21:46;14.70;99.90
3560;DHT22;1794;48.804;9.156;2022-08-25T04:24:17;14.70;99.90
3560;DHT22;1794;48.804;9.156;2022-08-25T04:26:48;14.60;99.90
3560;DHT22;1794;48.804;9.156;2022-08-25T04:29:18;14.60;99.90
3560;DHT22;1794;48.804;9.156;2022-08-25T04:31:46;14.60;99.90
3560;DHT22;1794;48.804;9.156;2022-08-25T04:34:16;14.60;99.90
3560;DHT22;1794;48.804;9.156;2022-08-25T04:36:43;14.60;99.90
3560;DHT22;1794;48.804;9.156;2022-08-25T04:39:11;14.80;99.90
3560;DHT22;1794;48.804;9.156;2022-08-25T04:41:40;14.70;99.90
3560;DHT22;1794;48.804;9.156;2022-08-25T04:44:07;14.60;99.90
3560;DHT22;1794;48.804;9.156;2022-08-25T04:46:34;14.70;99.90
3560;DHT22;1794;48.804;9.156;2022-08-25T04:49:02;14.60;99.90
3560;DHT22;1794;48.804;9.156;2022-08-25T04:51:32;14.70;99.90
3560;DHT22;1794;48.804;9.156;2022-08-25T04:54:03;14.70;99.90
3560;DHT22;1794;48.804;9.156;2022-08-25T04:56:31;14.70;99.90
3560;DHT22;1794;48.804;9.156;2022-08-25T04:59:03;14.70;99.90
3560;DHT22;1794;48.804;9.156;2022-08-25T05:01:30;14.70;99.90
3560;DHT22;1794;48.804;9.156;2022-08-25T05:03:59;14.80;99.90
3560;DHT22;1794;48.804;9.156;2022-08-25T05:06:28;14.80;99.90
3560;DHT22;1794;48.804;9.156;2022-08-25T05:08:56;14.80;99.90
3560;DHT22;1794;48.804;9.156;2022-08-25T05:11:25;14.80;99.90
3560;DHT22;1794;48.804;9.156;2022-08-25T05:13:54;14.90;99.90
3560;DHT22;1794;48.804;9.156;2022-08-25T05:16:24;14.90;99.90
3560;DHT22;1794;48.804;9.156;2022-08-25T05:18:53;14.90;99.90
3560;DHT22;1794;48.804;9.156;2022-08-25T05:21:22;15.00;99.90
3560;DHT22;1794;48.804;9.156;2022-08-25T05:23:49;15.00;99.90
3560;DHT22;1794;48.804;9.156;2022-08-25T05:26:21;15.10;99.90
3560;DHT22;1794;48.804;9.156;2022-08-25T05:28:49;15.00;99.90
3560;DHT22;1794;48.804;9.156;2022-08-25T05:31:17;15.00;99.90
3560;DHT22;1794;48.804;9.156;2022-08-25T05:33:45;15.10;99.90
3560;DHT22;1794;48.804;9.156;2022-08-25T05:36:14;15.00;99.90
3560;DHT22;1794;48.804;9.156;2022-08-25T05:38:41;15.10;99.90
3560;DHT22;1794;48.804;9.156;2022-08-25T05:41:10;15.20;99.90
3560;DHT22;1794;48.804;9.156;2022-08-25T05:43:39;15.20;99.90
3560;DHT22;1794;48.804;9.156;2022-08-25T05:46:07;15.30;99.90
3560;DHT22;1794;48.804;9.156;2022-08-25T05:48:34;15.40;99.90
3560;DHT22;1794;48.804;9.156;2022-08-25T05:51:05;15.40;99.90
3560;DHT22;1794;48.804;9.156;2022-08-25T05:53:32;15.40;99.90
3560;DHT22;1794;48.804;9.156;2022-08-25T05:56:00;15.50;99.90
3560;DHT22;1794;48.804;9.156;2022-08-25T05:58:27;15.70;99.90
3560;DHT22;1794;48.804;9.156;2022-08-25T06:00:55;15.90;99.90
3560;DHT22;1794;48.804;9.156;2022-08-25T06:03:23;16.20;99.90
3560;DHT22;1794;48.804;9.156;2022-08-25T06:05:49;16.60;99.90
3560;DHT22;1794;48.804;9.156;2022-08-25T06:08:17;16.90;99.90
3560;DHT22;1794;48.804;9.156;2022-08-25T06:10:44;17.40;99.90
3560;DHT22;1794;48.804;9.156;2022-08-25T06:13:11;17.70;99.90
3560;DHT22;1794;48.804;9.156;2022-08-25T06:15:37;18.20;99.90
3560;DHT22;1794;48.804;9.156;2022-08-25T06:18:04;18.60;99.90
3560;DHT22;1794;48.804;9.156;2022-08-25T06:20:31;19.10;99.90
3560;DHT22;1794;48.804;9.156;2022-08-25T06:22:58;19.50;99.90
3560;DHT22;1794;48.804;9.156;2022-08-25T06:25:27;19.90;99.90
3560;DHT22;1794;48.804;9.156;2022-08-25T06:27:57;20.20;99.90
3560;DHT22;1794;48.804;9.156;2022-08-25T06:30:23;20.50;91.00
3560;DHT22;1794;48.804;9.156;2022-08-25T06:32:50;21.00;63.40
3560;DHT22;1794;48.804;9.156;2022-08-25T06:35:18;21.10;49.90
3560;DHT22;1794;48.804;9.156;2022-08-25T06:37:45;21.80;10.40
3560;DHT22;1794;48.804;9.156;2022-08-25T06:40:13;21.80;4.20
3560;DHT22;1794;48.804;9.156;2022-08-25T06:42:42;21.70;19.60
3560;DHT22;1794;48.804;9.156;2022-08-25T06:45:09;22.00;1.00
3560;DHT22;1794;48.804;9.156;2022-08-25T06:47:36;22.10;1.00
3560;DHT22;1794;48.804;9.156;2022-08-25T06:50:03;22.40;1.00
3560;DHT22;1794;48.804;9.156;2022-08-25T06:52:30;22.70;1.00
3560;DHT22;1794;48.804;9.156;2022-08-25T06:54:57;23.10;1.00
3560;DHT22;1794;48.804;9.156;2022-08-25T06:57:24;23.20;1.00
3560;DHT22;1794;48.804;9.156;2022-08-25T06:59:52;23.80;1.00
3560;DHT22;1794;48.804;9.156;2022-08-25T07:02:19;24.70;1.00
3560;DHT22;1794;48.804;9.156;2022-08-25T07:04:45;24.50;1.00
3560;DHT22;1794;48.804;9.156;2022-08-25T07:07:12;25.40;1.00
3560;DHT22;1794;48.804;9.156;2022-08-25T07:09:39;25.90;1.00
3560;DHT22;1794;48.804;9.156;2022-08-25T07:12:06;26.10;1.00
3560;DHT22;1794;48.804;9.156;2022-08-25T07:14:33;26.50;1.00
3560;DHT22;1794;48.804;9.156;2022-08-25T07:17:02;26.40;1.00
3560;DHT22;1794;48.804;9.156;2022-08-25T07:19:29;26.40;1.00
3560;DHT22;1794;48.804;9.156;2022-08-25T07:21:55;26.10;1.00
3560;DHT22;1794;48.804;9.156;2022-08-25T07:24:22;26.60;1.00
3560;DHT22;1794;48.804;9.156;2022-08-25T07:26:51;26.30;1.00
3560;DHT22;1794;48.804;9.156;2022-08-25T07:29:21;24.40;1.00
3560;DHT22;1794;48.804;9.156;2022-08-25T07:31:48;24.80;1.00
3560;DHT22;1794;48.804;9.156;2022-08-25T07:34:17;25.80;1.00
3560;DHT22;1794;48.804;9.156;2022-08-25T07:37:02;24.60;1.00
3560;DHT22;1794;48.804;9.156;2022-08-25T07:39:30;25.00;1.00
3560;DHT22;1794;48.804;9.156;2022-08-25T07:41:58;25.90;1.00
3560;DHT22;1794;48.804;9.156;2022-08-25T07:44:26;26.00;1.00
3560;DHT22;1794;48.804;9.156;2022-08-25T07:46:53;26.60;1.00
3560;DHT22;1794;48.804;9.156;2022-08-25T07:49:22;26.00;1.00
3560;DHT22;1794;48.804;9.156;2022-08-25T07:51:50;26.40;1.00
3560;DHT22;1794;48.804;9.156;2022-08-25T07:54:17;27.50;92.30
3560;DHT22;1794;48.804;9.156;2022-08-25T07:56:44;27.90;99.90
3560;DHT22;1794;48.804;9.156;2022-08-25T07:59:11;25.90;89.30
3560;DHT22;1794;48.804;9.156;2022-08-25T08:01:38;26.70;5.80
3560;DHT22;1794;48.804;9.156;2022-08-25T08:04:05;27.80;99.90
3560;DHT22;1794;48.804;9.156;2022-08-25T08:06:33;28.30;99.90
3560;DHT22;1794;48.804;9.156;2022-08-25T08:09:00;29.40;99.90
3560;DHT22;1794;48.804;9.156;2022-08-25T08:11:29;30.10;99.90
3560;DHT22;1794;48.804;9.156;2022-08-25T08:13:58;30.30;99.90
3560;DHT22;1794;48.804;9.156;2022-08-25T08:16:26;31.10;99.90
3560;DHT22;1794;48.804;9.156;2022-08-25T08:21:23;28.10;99.90
3560;DHT22;1794;48.804;9.156;2022-08-25T08:23:52;29.80;99.90
3560;DHT22;1794;48.804;9.156;2022-08-25T08:26:21;30.40;99.90
3560;DHT22;1794;48.804;9.156;2022-08-25T08:28:48;30.20;99.90
3560;DHT22;1794;48.804;9.156;2022-08-25T08:31:15;30.10;99.90
3560;DHT22;1794;48.804;9.156;2022-08-25T08:33:44;31.60;99.90
3560;DHT22;1794;48.804;9.156;2022-08-25T08:36:11;31.30;99.90
3560;DHT22;1794;48.804;9.156;2022-08-25T08:38:39;32.20;99.90
3560;DHT22;1794;48.804;9.156;2022-08-25T08:41:16;32.50;99.90
3560;DHT22;1794;48.804;9.156;2022-08-25T08:44:08;33.00;99.90
3560;DHT22;1794;48.804;9.156;2022-08-25T08:46:56;32.90;99.90
3560;DHT22;1794;48.804;9.156;2022-08-25T08:49:30;33.70;99.90
3560;DHT22;1794;48.804;9.156;2022-08-25T08:52:01;34.40;99.90
3560;DHT22;1794;48.804;9.156;2022-08-25T08:54:31;35.40;99.90
3560;DHT22;1794;48.804;9.156;2022-08-25T08:57:08;33.60;99.90
3560;DHT22;1794;48.804;9.156;2022-08-25T08:59:42;34.90;99.90
3560;DHT22;1794;48.804;9.156;2022-08-25T09:02:15;36.10;99.90
3560;DHT22;1794;48.804;9.156;2022-08-25T09:04:46;33.60;99.90
3560;DHT22;1794;48.804;9.156;2022-08-25T09:07:18;34.40;99.90
3560;DHT22;1794;48.804;9.156;2022-08-25T09:09:47;35.70;99.90
3560;DHT22;1794;48.804;9.156;2022-08-25T09:12:24;37.10;99.90
3560;DHT22;1794;48.804;9.156;2022-08-25T09:14:59;33.70;99.90
3560;DHT22;1794;48.804;9.156;2022-08-25T09:17:39;30.50;99.90
3560;DHT22;1794;48.804;9.156;2022-08-25T09:20:22;33.20;99.90
3560;DHT22;1794;48.804;9.156;2022-08-25T09:22:59;32.90;99.90
3560;DHT22;1794;48.804;9.156;2022-08-25T09:25:34;31.30;99.90
3560;DHT22;1794;48.804;9.156;2022-08-25T09:28:07;32.00;99.90
3560;DHT22;1794;48.804;9.156;2022-08-25T09:30:41;30.10;99.90
3560;DHT22;1794;48.804;9.156;2022-08-25T09:33:11;33.40;99.90
3560;DHT22;1794;48.804;9.156;2022-08-25T09:35:40;35.60;99.90
3560;DHT22;1794;48.804;9.156;2022-08-25T09:38:09;35.80;99.90
3560;DHT22;1794;48.804;9.156;2022-08-25T09:40:39;36.00;99.90
3560;DHT22;1794;48.804;9.156;2022-08-25T09:43:20;33.30;99.90
3560;DHT22;1794;48.804;9.156;2022-08-25T09:45:48;34.50;99.90
3560;DHT22;1794;48.804;9.156;2022-08-25T09:48:23;36.50;99.90
3560;DHT22;1794;48.804;9.156;2022-08-25T09:50:53;33.80;99.90
3560;DHT22;1794;48.804;9.156;2022-08-25T09:53:23;32.80;99.90
3560;DHT22;1794;48.804;9.156;2022-08-25T09:55:55;34.70;99.90
3560;DHT22;1794;48.804;9.156;2022-08-25T09:58:24;35.50;99.90
3560;DHT22;1794;48.804;9.156;2022-08-25T10:01:10;35.70;98.90
3560;DHT22;1794;48.804;9.156;2022-08-25T10:03:37;35.90;98.70
3560;DHT22;1794;48.804;9.156;2022-08-25T10:06:18;36.80;97.80
3560;DHT22;1794;48.804;9.156;2022-08-25T10:08:53;36.90;97.60
3560;DHT22;1794;48.804;9.156;2022-08-25T10:11:37;37.70;96.00
3560;DHT22;1794;48.804;9.156;2022-08-25T10:14:16;36.80;96.80
3560;DHT22;1794;48.804;9.156;2022-08-25T10:16:44;34.60;98.00
3560;DHT22;1794;48.804;9.156;2022-08-25T10:19:13;32.90;99.90
3560;DHT22;1794;48.804;9.156;2022-08-25T10:22:02;35.00;99.00
3560;DHT22;1794;48.804;9.156;2022-08-25T10:24:29;36.50;97.70
3560;DHT22;1794;48.804;9.156;2022-08-25T10:27:02;36.60;96.60
3560;DHT22;1794;48.804;9.156;2022-08-25T10:29:50;33.80;97.70
3560;DHT22;1794;48.804;9.156;2022-08-25T10:32:24;35.90;98.10
3560;DHT22;1794;48.804;9.156;2022-08-25T10:34:57;38.60;95.20
3560;DHT22;1794;48.804;9.156;2022-08-25T10:37:31;38.50;94.20
3560;DHT22;1794;48.804;9.156;2022-08-25T10:40:07;36.40;94.60
3560;DHT22;1794;48.804;9.156;2022-08-25T10:42:40;31.90;99.90
3560;DHT22;1794;48.804;9.156;2022-08-25T10:45:18;34.00;99.10
3560;DHT22;1794;48.804;9.156;2022-08-25T10:48:34;36.10;96.60
3560;DHT22;1794;48.804;9.156;2022-08-25T10:51:34;38.80;92.90
3560;DHT22;1794;48.804;9.156;2022-08-25T10:54:08;39.80;91.80
3560;DHT22;1794;48.804;9.156;2022-08-25T10:56:39;39.30;90.90
3560;DHT22;1794;48.804;9.156;2022-08-25T10:59:25;39.80;90.40
3560;DHT22;1794;48.804;9.156;2022-08-25T11:02:07;38.80;89.60
3560;DHT22;1794;48.804;9.156;2022-08-25T11:04:42;37.10;90.50
3560;DHT22;1794;48.804;9.156;2022-08-25T11:07:14;36.30;91.70
3560;DHT22;1794;48.804;9.156;2022-08-25T11:09:46;35.60;92.50
3560;DHT22;1794;48.804;9.156;2022-08-25T11:12:18;35.80;92.60
3560;DHT22;1794;48.804;9.156;2022-08-25T11:14:49;35.60;92.80
3560;DHT22;1794;48.804;9.156;2022-08-25T11:17:23;33.30;93.40
3560;DHT22;1794;48.804;9.156;2022-08-25T11:19:53;32.40;95.70
3560;DHT22;1794;48.804;9.156;2022-08-25T11:22:25;32.00;96.40
3560;DHT22;1794;48.804;9.156;2022-08-25T11:25:00;32.30;95.90
3560;DHT22;1794;48.804;9.156;2022-08-25T11:27:36;29.50;98.70
3560;DHT22;1794;48.804;9.156;2022-08-25T11:30:06;28.60;99.90
3560;DHT22;1794;48.804;9.156;2022-08-25T11:32:36;28.30;99.90
3560;DHT22;1794;48.804;9.156;2022-08-25T11:35:06;28.90;99.90
3560;DHT22;1794;48.804;9.156;2022-08-25T11:37:37;30.30;99.90
3560;DHT22;1794;48.804;9.156;2022-08-25T11:40:34;30.80;99.90
3560;DHT22;1794;48.804;9.156;2022-08-25T11:43:13;31.70;99.90
3560;DHT22;1794;48.804;9.156;2022-08-25T11:45:57;32.60;98.40
3560;DHT22;1794;48.804;9.156;2022-08-25T11:48:36;32.20;98.40
3560;DHT22;1794;48.804;9.156;2022-08-25T11:51:05;31.50;98.80
3560;DHT22;1794;48.804;9.156;2022-08-25T11:53:34;29.60;99.90
3560;DHT22;1794;48.804;9.156;2022-08-25T11:56:04;31.40;99.90
3560;DHT22;1794;48.804;9.156;2022-08-25T11:58:37;33.10;98.20
3560;DHT22;1794;48.804;9.156;2022-08-25T12:01:08;34.80;96.00
3560;DHT22;1794;48.804;9.156;2022-08-25T12:03:52;36.20;94.00
3560;DHT22;1794;48.804;9.156;2022-08-25T12:06:25;37.80;92.00
3560;DHT22;1794;48.804;9.156;2022-08-25T12:09:17;38.60;90.80
3560;DHT22;1794;48.804;9.156;2022-08-25T12:11:48;39.00;88.80
3560;DHT22;1794;48.804;9.156;2022-08-25T12:17:05;35.90;89.40
3560;DHT22;1794;48.804;9.156;2022-08-25T12:19:57;36.50;89.50
3560;DHT22;1794;48.804;9.156;2022-08-25T12:25:47;39.20;84.00
3560;DHT22;1794;48.804;9.156;2022-08-25T12:28:40;35.60;88.40
3560;DHT22;1794;48.804;9.156;2022-08-25T12:31:17;37.50;85.20
3560;DHT22;1794;48.804;9.156;2022-08-25T12:33:59;35.00;87.70
3560;DHT22;1794;48.804;9.156;2022-08-25T12:36:31;36.80;86.90
3560;DHT22;1794;48.804;9.156;2022-08-25T12:39:18;37.10;85.20
3560;DHT22;1794;48.804;9.156;2022-08-25T12:41:55;35.10;86.30
3560;DHT22;1794;48.804;9.156;2022-08-25T12:44:39;30.90;92.00
3560;DHT22;1794;48.804;9.156;2022-08-25T12:50:24;31.70;92.70
3560;DHT22;1794;48.804;9.156;2022-08-25T12:52:53;29.90;93.50
3560;DHT22;1794;48.804;9.156;2022-08-25T12:55:23;30.20;94.40
3560;DHT22;1794;48.804;9.156;2022-08-25T12:57:53;31.50;92.80
3560;DHT22;1794;48.804;9.156;2022-08-25T13:00:25;32.00;92.40
3560;DHT22;1794;48.804;9.156;2022-08-25T13:03:11;32.30;92.20
3560;DHT22;1794;48.804;9.156;2022-08-25T13:05:53;32.30;92.40
3560;DHT22;1794;48.804;9.156;2022-08-25T13:08:44;32.30;92.20
3560;DHT22;1794;48.804;9.156;2022-08-25T13:11:17;32.40;92.00
3560;DHT22;1794;48.804;9.156;2022-08-25T13:13:50;31.40;92.90
3560;DHT22;1794;48.804;9.156;2022-08-25T13:16:20;30.90;92.60
3560;DHT22;1794;48.804;9.156;2022-08-25T13:18:48;30.50;94.10
3560;DHT22;1794;48.804;9.156;2022-08-25T13:21:16;30.00;94.90
3560;DHT22;1794;48.804;9.156;2022-08-25T13:23:47;30.70;94.80
3560;DHT22;1794;48.804;9.156;2022-08-25T13:26:20;31.40;93.80
3560;DHT22;1794;48.804;9.156;2022-08-25T13:28:52;31.80;93.30
3560;DHT22;1794;48.804;9.156;2022-08-25T13:31:20;31.10;93.50
3560;DHT22;1794;48.804;9.156;2022-08-25T13:33:53;30.70;94.60
3560;DHT22;1794;48.804;9.156;2022-08-25T13:36:22;31.60;93.80
3560;DHT22;1794;48.804;9.156;2022-08-25T13:39:14;31.70;93.00
3560;DHT22;1794;48.804;9.156;2022-08-25T13:41:46;30.90;93.70
3560;DHT22;1794;48.804;9.156;2022-08-25T13:44:14;30.40;94.80
3560;DHT22;1794;48.804;9.156;2022-08-25T13:46:41;31.20;94.30
3560;DHT22;1794;48.804;9.156;2022-08-25T13:49:10;30.00;95.20
3560;DHT22;1794;48.804;9.156;2022-08-25T13:51:39;30.10;95.20
3560;DHT22;1794;48.804;9.156;2022-08-25T13:54:24;30.10;95.00
3560;DHT22;1794;48.804;9.156;2022-08-25T13:56:51;30.40;93.90
3560;DHT22;1794;48.804;9.156;2022-08-25T13:59:22;30.90;92.70
3560;DHT22;1794;48.804;9.156;2022-08-25T14:01:51;30.30;93.00
3560;DHT22;1794;48.804;9.156;2022-08-25T14:04:22;30.10;93.80
3560;DHT22;1794;48.804;9.156;2022-08-25T14:07:12;30.90;93.30
3560;DHT22;1794;48.804;9.156;2022-08-25T14:09:45;30.10;94.00
3560;DHT22;1794;48.804;9.156;2022-08-25T14:12:36;30.20;93.90
3560;DHT22;1794;48.804;9.156;2022-08-25T14:15:12;30.30;94.00
3560;DHT22;1794;48.804;9.156;2022-08-25T14:17:59;30.30;94.40
3560;DHT22;1794;48.804;9.156;2022-08-25T14:20:29;30.20;94.40
3560;DHT22;1794;48.804;9.156;2022-08-25T14:22:58;30.50;94.10
3560;DHT22;1794;48.804;9.156;2022-08-25T14:25:27;30.30;94.90
3560;DHT22;1794;48.804;9.156;2022-08-25T14:27:55;30.80;94.70
3560;DHT22;1794;48.804;9.156;2022-08-25T14:30:22;31.30;94.70
3560;DHT22;1794;48.804;9.156;2022-08-25T14:32:49;31.00;94.50
3560;DHT22;1794;48.804;9.156;2022-08-25T14:35:16;30.90;93.60
3560;DHT22;1794;48.804;9.156;2022-08-25T14:37:44;30.50;93.80
3560;DHT22;1794;48.804;9.156;2022-08-25T14:40:10;30.60;93.60
3560;DHT22;1794;48.804;9.156;2022-08-25T14:42:41;29.70;94.70
3560;DHT22;1794;48.804;9.156;2022-08-25T14:45:08;29.70;95.70
3560;DHT22;1794;48.804;9.156;2022-08-25T14:47:35;29.50;96.00
3560;DHT22;1794;48.804;9.156;2022-08-25T14:50:02;29.60;96.00
3560;DHT22;1794;48.804;9.156;2022-08-25T14:52:29;30.40;95.50
3560;DHT22;1794;48.804;9.156;2022-08-25T14:54:56;29.60;95.30
3560;DHT22;1794;48.804;9.156;2022-08-25T14:57:23;29.50;95.90
3560;DHT22;1794;48.804;9.156;2022-08-25T14:59:51;29.80;95.60
3560;DHT22;1794;48.804;9.156;2022-08-25T15:02:19;29.90;95.10
3560;DHT22;1794;48.804;9.156;2022-08-25T15:04:49;30.10;95.20
3560;DHT22;1794;48.804;9.156;2022-08-25T15:07:16;30.70;94.70
3560;DHT22;1794;48.804;9.156;2022-08-25T15:10:00;29.90;95.80
3560;DHT22;1794;48.804;9.156;2022-08-25T15:12:27;30.60;95.00
3560;DHT22;1794;48.804;9.156;2022-08-25T15:14:56;30.80;95.10
3560;DHT22;1794;48.804;9.156;2022-08-25T15:17:23;31.00;94.60
3560;DHT22;1794;48.804;9.156;2022-08-25T15:19:50;31.30;93.70
3560;DHT22;1794;48.804;9.156;2022-08-25T15:22:17;31.50;94.10
3560;DHT22;1794;48.804;9.156;2022-08-25T15:24:43;31.30;93.70
3560;DHT22;1794;48.804;9.156;2022-08-25T15:27:11;30.80;94.10
3560;DHT22;1794;48.804;9.156;2022-08-25T15:29:40;30.40;94.90
3560;DHT22;1794;48.804;9.156;2022-08-25T15:32:08;30.40;94.90
3560;DHT22;1794;48.804;9.156;2022-08-25T15:34:35;30.00;94.30
3560;DHT22;1794;48.804;9.156;2022-08-25T15:37:06;30.20;93.70
3560;DHT22;1794;48.804;9.156;2022-08-25T15:39:33;30.50;94.50
3560;DHT22;1794;48.804;9.156;2022-08-25T15:42:00;29.90;95.60
3560;DHT22;1794;48.804;9.156;2022-08-25T15:44:27;29.60;95.40
3560;DHT22;1794;48.804;9.156;2022-08-25T15:46:53;29.30;96.30
3560;DHT22;1794;48.804;9.156;2022-08-25T15:49:21;29.20;96.30
3560;DHT22;1794;48.804;9.156;2022-08-25T15:51:48;29.30;96.20
3560;DHT22;1794;48.804;9.156;2022-08-25T15:54:15;29.50;95.80
3560;DHT22;1794;48.804;9.156;2022-08-25T15:56:41;29.30;96.40
3560;DHT22;1794;48.804;9.156;2022-08-25T15:59:09;29.50;96.40
3560;DHT22;1794;48.804;9.156;2022-08-25T16:01:38;29.40;96.70
3560;DHT22;1794;48.804;9.156;2022-08-25T16:04:05;29.30;96.80
3560;DHT22;1794;48.804;9.156;2022-08-25T16:06:34;29.50;96.60
3560;DHT22;1794;48.804;9.156;2022-08-25T16:09:01;29.50;96.70
3560;DHT22;1794;48.804;9.156;2022-08-25T16:11:29;29.70;96.30
3560;DHT22;1794;48.804;9.156;2022-08-25T16:13:56;29.20;96.40
3560;DHT22;1794;48.804;9.156;2022-08-25T16:16:25;29.20;96.40
3560;DHT22;1794;48.804;9.156;2022-08-25T16:18:52;28.90;96.70
3560;DHT22;1794;48.804;9.156;2022-08-25T16:21:22;29.20;96.40
3560;DHT22;1794;48.804;9.156;2022-08-25T16:23:53;29.20;96.70
3560;DHT22;1794;48.804;9.156;2022-08-25T16:27:08;29.30;96.20
3560;DHT22;1794;48.804;9.156;2022-08-25T16:29:36;29.80;96.20
3560;DHT22;1794;48.804;9.156;2022-08-25T16:32:04;30.00;96.60
3560;DHT22;1794;48.804;9.156;2022-08-25T16:34:31;29.90;96.50
3560;DHT22;1794;48.804;9.156;2022-08-25T16:36:59;29.90;96.00